createdAt,value
2019-02-25T00:00:50.659Z,0.97
2019-02-25T00:03:18.817Z,0.87
2019-02-25T00:05:47.057Z,0.37
2019-02-25T00:08:15.270Z,0.33
2019-02-25T00:10:43.451Z,0.73
2019-02-25T00:13:11.741Z,0.64
2019-02-25T00:15:40.121Z,0.83
2019-02-25T00:18:08.262Z,-0.06
2019-02-25T00:20:36.525Z,0.76
2019-02-25T00:23:04.857Z,0.58
2019-02-25T00:25:32.984Z,0.05
2019-02-25T00:28:01.472Z,-0.23
2019-02-25T00:30:29.618Z,0.36
2019-02-25T00:32:57.834Z,0.28
2019-02-25T00:35:25.898Z,0.48
2019-02-25T00:37:54.106Z,0.48
2019-02-25T00:40:22.304Z,0.07
2019-02-25T00:42:50.436Z,0.03
2019-02-25T00:45:18.694Z,0.11
2019-02-25T00:47:47.014Z,-0.08
2019-02-25T00:50:15.241Z,-0.40
2019-02-25T00:52:43.537Z,-0.05
2019-02-25T00:55:11.932Z,0.10
2019-02-25T00:57:40.080Z,0.18
2019-02-25T01:00:11.082Z,0.30
2019-02-25T01:02:39.195Z,0.40
2019-02-25T01:05:07.723Z,0.42
2019-02-25T01:07:35.837Z,0.30
2019-02-25T01:10:04.702Z,0.03
2019-02-25T01:12:32.840Z,0.04
2019-02-25T01:15:01.023Z,-0.29
2019-02-25T01:17:29.295Z,-0.31
2019-02-25T01:19:57.448Z,-0.61
2019-02-25T01:22:25.615Z,-0.53
2019-02-25T01:24:53.826Z,-0.08
2019-02-25T01:27:22.271Z,0.08
2019-02-25T01:29:50.378Z,-0.02
2019-02-25T01:32:18.601Z,-0.37
2019-02-25T01:34:46.783Z,-0.37
2019-02-25T01:37:14.889Z,-0.12
2019-02-25T01:39:43.322Z,-0.33
2019-02-25T01:42:11.514Z,-0.68
2019-02-25T01:44:39.675Z,-0.25
2019-02-25T01:47:07.929Z,-0.14
2019-02-25T01:49:36.148Z,-0.48
2019-02-25T01:52:04.292Z,-0.26
2019-02-25T01:54:32.491Z,-0.29
2019-02-25T01:57:00.690Z,-0.68
2019-02-25T01:59:28.905Z,-0.92
2019-02-25T02:01:57.089Z,-1.06
2019-02-25T02:04:25.289Z,-1.06
2019-02-25T02:06:53.439Z,-0.94
2019-02-25T02:09:21.600Z,-0.89
2019-02-25T02:11:49.801Z,-0.82
2019-02-25T02:14:18.063Z,-0.89
2019-02-25T02:16:46.242Z,-0.57
2019-02-25T02:19:14.659Z,-0.69
2019-02-25T02:21:42.847Z,-0.64
2019-02-25T02:24:11.085Z,-0.37
2019-02-25T02:26:39.266Z,-0.46
2019-02-25T02:29:07.491Z,-0.88
2019-02-25T02:31:35.674Z,-1.11
2019-02-25T02:34:03.817Z,-1.34
2019-02-25T02:36:32.039Z,-1.30
2019-02-25T02:39:00.196Z,-1.03
2019-02-25T02:41:28.400Z,-1.02
2019-02-25T02:43:56.546Z,-0.84
2019-02-25T02:46:52.589Z,-0.75
2019-02-25T02:49:20.797Z,-0.58
2019-02-25T02:51:48.980Z,-1.05
2019-02-25T02:54:17.332Z,-1.27
2019-02-25T02:56:45.488Z,-1.32
2019-02-25T02:59:13.636Z,-1.52
2019-02-25T03:01:41.983Z,-1.11
2019-02-25T03:04:10.143Z,-1.17
2019-02-25T03:06:38.386Z,-1.13
2019-02-25T03:11:55.737Z,-1.12
2019-02-25T03:14:23.842Z,-0.79
2019-02-25T03:16:52.103Z,-1.05
2019-02-25T03:19:20.285Z,-1.28
2019-02-25T03:21:48.547Z,-1.46
2019-02-25T03:24:16.823Z,-1.63
2019-02-25T03:26:45.077Z,-1.57
2019-02-25T03:29:13.296Z,-1.62
2019-02-25T03:31:41.426Z,-1.65
2019-02-25T03:34:09.596Z,-1.58
2019-02-25T03:36:37.777Z,-1.52
2019-02-25T03:39:07.261Z,-1.51
2019-02-25T03:41:35.408Z,-1.73
2019-02-25T03:44:03.637Z,-1.86
2019-02-25T03:46:31.782Z,-1.48
2019-02-25T03:48:59.921Z,-1.60
2019-02-25T03:51:28.213Z,-1.83
2019-02-25T03:53:56.389Z,-1.94
2019-02-25T03:56:24.541Z,-1.99
2019-02-25T03:58:52.718Z,-1.41
2019-02-25T04:01:20.869Z,-1.13
2019-02-25T04:03:49.215Z,-1.22
2019-02-25T04:06:17.439Z,-1.49
2019-02-25T04:08:45.559Z,-1.74
2019-02-25T04:11:13.784Z,-1.97
2019-02-25T04:13:41.943Z,-2.07
2019-02-25T04:16:10.102Z,-2.12
2019-02-25T04:18:38.295Z,-2.16
2019-02-25T04:21:06.621Z,-2.23
2019-02-25T04:23:34.796Z,-2.25
2019-02-25T04:26:03.101Z,-2.10
2019-02-25T04:28:31.193Z,-1.79
2019-02-25T04:30:59.371Z,-1.99
2019-02-25T04:33:27.542Z,-2.11
2019-02-25T04:35:55.677Z,-2.23
2019-02-25T04:38:23.815Z,-2.33
2019-02-25T04:40:52.036Z,-2.30
2019-02-25T04:43:20.327Z,-2.27
2019-02-25T04:45:48.485Z,-2.33
2019-02-25T04:48:16.680Z,-2.38
2019-02-25T04:50:44.860Z,-2.44
2019-02-25T04:53:13.183Z,-2.38
2019-02-25T04:55:41.339Z,-2.37
2019-02-25T04:58:09.542Z,-2.37
2019-02-25T05:00:37.754Z,-2.38
2019-02-25T05:03:05.849Z,-1.95
2019-02-25T05:05:34.029Z,-2.12
2019-02-25T05:08:02.139Z,-2.29
2019-02-25T05:10:30.386Z,-2.35
2019-02-25T05:13:03.227Z,-2.40
2019-02-25T05:15:31.790Z,-2.48
2019-02-25T05:17:59.974Z,-2.53
2019-02-25T05:20:28.113Z,-2.58
2019-02-25T05:22:56.288Z,-2.60
2019-02-25T05:25:24.410Z,-2.60
2019-02-25T05:27:52.617Z,-2.61
2019-02-25T05:30:20.702Z,-2.63
2019-02-25T05:32:48.906Z,-2.68
2019-02-25T05:35:16.992Z,-2.69
2019-02-25T05:37:45.139Z,-2.71
2019-02-25T05:40:14.879Z,-2.73
2019-02-25T05:42:43.266Z,-2.77
2019-02-25T05:45:11.653Z,-2.77
2019-02-25T05:47:39.839Z,-2.77
2019-02-25T05:50:10.089Z,-2.77
2019-02-25T05:52:38.277Z,-2.79
2019-02-25T05:55:07.934Z,-2.73
2019-02-25T05:57:36.135Z,-2.66
2019-02-25T06:00:04.809Z,-2.69
2019-02-25T06:02:33.119Z,-2.62
2019-02-25T06:05:21.273Z,-2.65
2019-02-25T06:07:49.663Z,-2.67
2019-02-25T06:10:17.842Z,-2.73
2019-02-25T06:12:46.039Z,-2.78
2019-02-25T06:15:14.908Z,-2.82
2019-02-25T06:17:43.010Z,-2.83
2019-02-25T06:20:11.883Z,-2.82
2019-02-25T06:22:40.091Z,-2.81
2019-02-25T06:25:08.567Z,-2.84
2019-02-25T06:27:36.768Z,-2.82
2019-02-25T06:30:06.043Z,-2.81
2019-02-25T06:32:34.216Z,-2.77
2019-02-25T06:35:02.338Z,-2.69
2019-02-25T06:37:30.524Z,-2.72
2019-02-25T06:39:58.678Z,-2.68
2019-02-25T06:42:27.026Z,-2.65
2019-02-25T06:44:55.269Z,-2.63
2019-02-25T06:47:23.438Z,-2.61
2019-02-25T06:49:51.691Z,-2.63
2019-02-25T06:52:20.215Z,-2.66
2019-02-25T06:54:48.415Z,-2.63
2019-02-25T06:57:16.658Z,-2.56
2019-02-25T06:59:44.864Z,-2.44
2019-02-25T07:02:13.097Z,-2.35
2019-02-25T07:04:48.809Z,-2.13
2019-02-25T07:07:35.977Z,-2.01
2019-02-25T07:10:22.013Z,-1.83
2019-02-25T07:13:06.277Z,-1.47
2019-02-25T07:15:53.419Z,-1.34
2019-02-25T07:18:40.719Z,-1.06
2019-02-25T07:21:26.786Z,-0.90
2019-02-25T07:24:16.772Z,-0.88
2019-02-25T07:27:07.138Z,-0.80
2019-02-25T07:29:54.270Z,-0.64
2019-02-25T07:32:39.412Z,-0.45
2019-02-25T07:35:16.527Z,-0.23
2019-02-25T07:38:16.294Z,-0.02
2019-02-25T07:41:09.609Z,0.12
2019-02-25T07:44:05.722Z,0.38
2019-02-25T07:46:47.503Z,0.50
2019-02-25T07:49:37.827Z,0.56
2019-02-25T07:52:33.846Z,0.64
2019-02-25T07:55:21.074Z,0.77
2019-02-25T07:57:58.935Z,1.05
2019-02-25T08:00:46.152Z,1.21
2019-02-25T08:03:48.304Z,1.34
2019-02-25T08:06:31.723Z,1.46
2019-02-25T08:09:18.743Z,1.57
2019-02-25T08:11:58.962Z,1.70
2019-02-25T08:14:48.999Z,1.88
2019-02-25T08:17:34.837Z,1.91
2019-02-25T08:20:19.557Z,1.62
2019-02-25T08:23:06.892Z,1.60
2019-02-25T08:25:44.920Z,1.81
2019-02-25T08:28:32.601Z,1.95
2019-02-25T08:31:18.586Z,2.38
2019-02-25T08:34:18.134Z,2.55
2019-02-25T08:37:42.630Z,2.66
2019-02-25T08:40:40.042Z,3.09
2019-02-25T08:43:42.814Z,3.37
2019-02-25T08:46:33.043Z,3.88
2019-02-25T08:49:04.840Z,4.00
2019-02-25T08:51:32.990Z,4.05
2019-02-25T08:54:01.207Z,4.39
2019-02-25T08:56:29.436Z,4.31
2019-02-25T08:58:57.582Z,5.01
2019-02-25T09:01:25.809Z,5.13
2019-02-25T09:03:54.003Z,5.32
2019-02-25T09:06:22.221Z,5.37
2019-02-25T09:08:50.424Z,5.49
2019-02-25T09:11:18.625Z,5.14
2019-02-25T09:13:46.765Z,6.00
2019-02-25T09:16:15.009Z,6.26
2019-02-25T09:18:43.141Z,6.52
2019-02-25T09:21:11.460Z,6.66
2019-02-25T09:23:39.563Z,6.02
2019-02-25T09:26:07.675Z,6.70
2019-02-25T09:28:35.855Z,7.42
2019-02-25T09:31:05.629Z,8.14
2019-02-25T09:33:33.953Z,8.71
2019-02-25T09:36:02.138Z,8.94
2019-02-25T09:38:30.358Z,9.00
2019-02-25T09:40:58.629Z,9.02
2019-02-25T09:43:27.167Z,9.58
2019-02-25T09:45:55.353Z,9.79
2019-02-25T09:48:23.757Z,9.93
2019-02-25T09:50:51.971Z,9.68
2019-02-25T09:53:20.220Z,10.33
2019-02-25T09:55:48.378Z,10.67
2019-02-25T09:58:16.665Z,10.67
2019-02-25T10:00:46.161Z,10.98
2019-02-25T10:03:14.461Z,11.13
2019-02-25T10:05:42.789Z,11.47
2019-02-25T10:08:11.129Z,11.73
2019-02-25T10:10:39.367Z,12.03
2019-02-25T10:13:07.591Z,11.15
2019-02-25T10:15:35.815Z,11.71
2019-02-25T10:18:04.110Z,11.96
2019-02-25T10:20:32.282Z,12.30
2019-02-25T10:23:00.637Z,12.86
2019-02-25T10:25:28.929Z,13.29
2019-02-25T10:27:57.161Z,13.59
2019-02-25T10:30:25.363Z,13.81
2019-02-25T10:32:53.530Z,14.15
2019-02-25T10:35:21.792Z,14.29
2019-02-25T10:37:49.969Z,14.08
2019-02-25T10:40:22.164Z,13.21
2019-02-25T10:42:48.121Z,14.10
2019-02-25T10:45:17.198Z,14.19
2019-02-25T10:47:46.608Z,14.73
2019-02-25T10:50:15.972Z,14.88
2019-02-25T10:52:44.923Z,15.24
2019-02-25T10:55:17.913Z,15.35
2019-02-25T10:57:46.181Z,15.74
2019-02-25T11:00:15.732Z,15.87
2019-02-25T11:02:44.626Z,15.39
2019-02-25T11:05:14.047Z,15.88
2019-02-25T11:07:42.199Z,16.28
2019-02-25T11:10:18.267Z,16.58
2019-02-25T11:12:46.559Z,16.01
2019-02-25T11:15:16.017Z,16.00
2019-02-25T11:17:45.542Z,14.46
2019-02-25T11:20:14.338Z,15.65
2019-02-25T11:22:44.071Z,16.73
2019-02-25T11:25:12.667Z,17.32
2019-02-25T11:27:40.965Z,17.33
2019-02-25T11:30:11.966Z,17.15
2019-02-25T11:32:40.006Z,17.92
2019-02-25T11:35:10.691Z,18.23
2019-02-25T11:37:38.613Z,18.72
2019-02-25T11:40:08.197Z,18.37
2019-02-25T11:42:36.365Z,17.70
2019-02-25T11:45:05.421Z,18.25
2019-02-25T11:47:34.037Z,18.11
2019-02-25T11:50:02.233Z,18.98
2019-02-25T11:52:30.446Z,19.42
2019-02-25T11:54:58.720Z,18.95
2019-02-25T11:57:27.009Z,19.26
2019-02-25T11:59:55.211Z,19.34
2019-02-25T12:02:25.992Z,17.95
2019-02-25T12:04:53.399Z,18.28
2019-02-25T12:07:21.914Z,18.96
2019-02-25T12:09:50.098Z,18.87
2019-02-25T12:12:18.426Z,19.62
2019-02-25T12:14:46.593Z,19.36
2019-02-25T12:17:14.757Z,19.36
2019-02-25T12:19:42.934Z,19.68
2019-02-25T12:22:11.147Z,20.60
2019-02-25T12:24:39.353Z,21.39
2019-02-25T12:27:07.826Z,20.38
2019-02-25T12:29:36.129Z,19.22
2019-02-25T12:32:04.643Z,20.24
2019-02-25T12:34:32.821Z,20.67
2019-02-25T12:37:01.217Z,21.28
2019-02-25T12:39:29.464Z,19.59
2019-02-25T12:41:57.676Z,21.41
2019-02-25T12:44:26.221Z,22.53
2019-02-25T12:46:54.391Z,22.65
2019-02-25T12:49:22.677Z,22.81
2019-02-25T12:51:50.783Z,22.99
2019-02-25T12:54:19.100Z,23.28
2019-02-25T12:56:47.494Z,23.39
2019-02-25T12:59:15.695Z,23.11
2019-02-25T13:01:43.881Z,23.56
2019-02-25T13:04:12.050Z,23.51
2019-02-25T13:06:40.338Z,23.85
2019-02-25T13:09:13.468Z,24.09
2019-02-25T13:11:41.682Z,23.93
2019-02-25T13:14:09.859Z,23.26
2019-02-25T13:16:38.150Z,24.11
2019-02-25T13:19:06.379Z,24.38
2019-02-25T13:21:34.706Z,24.39
2019-02-25T13:24:04.607Z,24.38
2019-02-25T13:26:33.997Z,24.24
2019-02-25T13:29:02.776Z,24.29
2019-02-25T13:31:31.026Z,24.39
2019-02-25T13:34:00.404Z,24.41
2019-02-25T13:36:28.616Z,24.44
2019-02-25T13:38:56.843Z,24.43
2019-02-25T13:41:25.319Z,24.40
2019-02-25T13:43:53.506Z,24.32
2019-02-25T13:46:21.835Z,24.27
2019-02-25T13:48:50.066Z,24.15
2019-02-25T13:51:18.261Z,24.02
2019-02-25T13:53:46.447Z,23.92
2019-02-25T13:56:14.803Z,23.80
2019-02-25T13:58:43.435Z,23.76
2019-02-25T14:01:13.091Z,23.53
2019-02-25T14:03:41.452Z,23.52
2019-02-25T14:06:09.917Z,23.36
2019-02-25T14:08:38.071Z,23.02
2019-02-25T14:11:06.405Z,22.03
2019-02-25T14:13:34.613Z,22.78
2019-02-25T14:16:02.934Z,22.78
2019-02-25T14:18:31.303Z,22.69
2019-02-25T14:20:59.581Z,22.42
2019-02-25T14:23:27.910Z,22.48
2019-02-25T14:25:58.799Z,22.29
2019-02-25T14:28:26.425Z,22.18
2019-02-25T14:30:54.839Z,21.20
2019-02-25T14:33:23.694Z,21.63
2019-02-25T14:35:53.098Z,21.46
2019-02-25T14:38:23.248Z,21.31
2019-02-25T14:40:53.851Z,21.08
2019-02-25T14:43:22.477Z,20.61
2019-02-25T14:45:53.967Z,20.64
2019-02-25T14:48:21.029Z,20.51
2019-02-25T14:50:49.661Z,19.97
2019-02-25T14:53:17.906Z,20.10
2019-02-25T14:55:47.781Z,19.97
2019-02-25T14:58:17.364Z,19.50
2019-02-25T15:00:45.825Z,19.58
2019-02-25T15:03:14.194Z,19.51
2019-02-25T15:05:42.766Z,19.42
2019-02-25T15:08:11.300Z,17.63
2019-02-25T15:10:40.784Z,17.69
2019-02-25T15:13:10.598Z,17.85
2019-02-25T15:15:41.129Z,16.82
2019-02-25T15:18:09.908Z,17.58
2019-02-25T15:20:38.222Z,17.59
2019-02-25T15:23:07.507Z,17.31
2019-02-25T15:25:36.593Z,16.89
2019-02-25T15:28:09.365Z,17.02
2019-02-25T15:30:35.698Z,17.10
2019-02-25T15:33:03.911Z,17.48
2019-02-25T15:35:34.576Z,17.65
2019-02-25T15:38:02.023Z,17.21
2019-02-25T15:40:30.290Z,16.71
2019-02-25T15:43:03.352Z,16.48
2019-02-25T15:45:35.002Z,16.12
2019-02-25T15:48:03.475Z,16.79
2019-02-25T15:50:32.086Z,15.92
2019-02-25T15:53:02.791Z,16.10
2019-02-25T15:55:31.090Z,15.83
2019-02-25T15:57:59.327Z,16.34
2019-02-25T16:00:30.048Z,16.30
2019-02-25T16:02:58.985Z,16.37
2019-02-25T16:05:29.522Z,15.92
2019-02-25T16:08:00.664Z,15.43
2019-02-25T16:10:28.569Z,14.76
2019-02-25T16:12:57.762Z,14.20
2019-02-25T16:15:27.236Z,13.76
2019-02-25T16:17:56.403Z,13.61
2019-02-25T16:20:25.506Z,14.02
2019-02-25T16:22:56.349Z,14.23
2019-02-25T16:25:25.243Z,14.36
2019-02-25T16:27:54.239Z,13.76
2019-02-25T16:30:25.799Z,13.69
2019-02-25T16:32:53.659Z,13.16
2019-02-25T16:35:21.994Z,12.37
2019-02-25T16:37:50.754Z,12.25
2019-02-25T16:40:20.256Z,12.25
2019-02-25T16:42:54.991Z,12.04
2019-02-25T16:45:22.043Z,12.12
2019-02-25T16:47:50.267Z,12.96
2019-02-25T16:50:19.282Z,13.16
2019-02-25T16:52:49.364Z,12.95
2019-02-25T16:55:19.979Z,12.58
2019-02-25T16:57:48.226Z,12.91
2019-02-25T17:00:17.516Z,13.06
2019-02-25T17:02:47.733Z,11.77
2019-02-25T17:05:15.810Z,11.21
2019-02-25T17:07:44.716Z,11.72
2019-02-25T17:10:16.143Z,10.69
2019-02-25T17:12:45.707Z,11.92
2019-02-25T17:15:15.896Z,12.12
2019-02-25T17:17:44.087Z,12.20
2019-02-25T17:20:14.022Z,12.20
2019-02-25T17:22:42.417Z,12.11
2019-02-25T17:25:12.086Z,12.01
2019-02-25T17:27:40.945Z,11.87
2019-02-25T17:30:15.191Z,11.71
2019-02-25T17:32:44.135Z,11.57
2019-02-25T17:35:14.994Z,11.48
2019-02-25T17:37:43.552Z,11.36
2019-02-25T17:40:13.122Z,11.25
2019-02-25T17:42:41.615Z,11.11
2019-02-25T17:45:12.670Z,10.97
2019-02-25T17:47:41.932Z,10.86
2019-02-25T17:50:11.852Z,10.75
2019-02-25T17:52:42.535Z,10.64
2019-02-25T17:55:12.970Z,10.51
2019-02-25T17:57:41.246Z,10.37
2019-02-25T18:02:57.167Z,10.06
2019-02-25T18:05:26.177Z,9.98
2019-02-25T18:07:54.500Z,9.82
2019-02-25T18:10:24.724Z,9.75
2019-02-25T18:12:54.563Z,9.58
2019-02-25T18:15:26.172Z,9.27
2019-02-25T18:17:55.480Z,9.13
2019-02-25T18:20:24.413Z,9.12
2019-02-25T18:22:52.803Z,8.98
2019-02-25T18:25:21.147Z,9.02
2019-02-25T18:27:50.470Z,8.91
2019-02-25T18:30:20.979Z,8.59
2019-02-25T18:32:50.468Z,8.70
2019-02-25T18:35:21.197Z,8.63
2019-02-25T18:37:50.012Z,8.47
2019-02-25T18:40:20.681Z,8.37
2019-02-25T18:42:48.421Z,8.22
2019-02-25T18:45:18.433Z,8.16
2019-02-25T18:47:50.385Z,8.04
2019-02-25T18:50:21.760Z,7.99
2019-02-25T18:52:52.908Z,7.83
2019-02-25T18:55:23.268Z,7.76
2019-02-25T18:57:53.388Z,7.67
2019-02-25T19:00:29.969Z,7.30
2019-02-25T19:03:00.360Z,7.39
2019-02-25T19:05:31.453Z,7.32
2019-02-25T19:08:02.334Z,7.36
2019-02-25T19:10:31.208Z,7.31
2019-02-25T19:13:03.022Z,7.25
2019-02-25T19:15:31.838Z,7.13
2019-02-25T19:18:00.769Z,7.03
2019-02-25T19:20:29.717Z,6.98
2019-02-25T19:23:02.601Z,6.86
2019-02-25T19:25:29.588Z,6.78
2019-02-25T19:27:58.757Z,6.73
2019-02-25T19:30:29.775Z,6.69
2019-02-25T19:33:09.057Z,6.62
2019-02-25T19:35:30.456Z,6.53
2019-02-25T19:38:01.238Z,6.48
2019-02-25T19:40:29.409Z,6.36
2019-02-25T19:42:59.537Z,6.23
2019-02-25T19:45:28.016Z,6.14
2019-02-25T19:47:58.365Z,5.97
2019-02-25T19:50:27.703Z,6.03
2019-02-25T19:52:56.042Z,5.85
2019-02-25T19:55:24.450Z,5.33
2019-02-25T19:57:52.906Z,5.83
2019-02-25T20:00:30.267Z,5.67
2019-02-25T20:03:05.218Z,5.11
2019-02-25T20:05:29.315Z,4.78
2019-02-25T20:07:57.871Z,5.05
2019-02-25T20:10:26.094Z,5.40
2019-02-25T20:12:55.616Z,5.65
2019-02-25T20:15:25.238Z,5.58
2019-02-25T20:17:55.265Z,5.49
2019-02-25T20:23:17.323Z,5.40
2019-02-25T20:25:48.781Z,5.25
2019-02-25T20:28:18.643Z,5.23
2019-02-25T20:30:48.960Z,5.15
2019-02-25T20:33:17.631Z,5.07
2019-02-25T20:35:51.034Z,5.03
2019-02-25T20:38:16.851Z,4.98
2019-02-25T20:40:50.817Z,4.93
2019-02-25T20:43:21.267Z,4.87
2019-02-25T20:45:52.103Z,4.82
2019-02-25T20:48:19.129Z,4.73
2019-02-25T20:50:48.398Z,4.66
2019-02-25T20:53:17.007Z,4.64
2019-02-25T20:55:45.548Z,4.55
2019-02-25T20:58:16.256Z,4.37
2019-02-25T21:00:46.491Z,4.41
2019-02-25T21:03:16.027Z,4.42
2019-02-25T21:05:46.660Z,4.39
2019-02-25T21:08:16.911Z,4.22
2019-02-25T21:10:46.049Z,4.27
2019-02-25T21:13:14.456Z,4.15
2019-02-25T21:15:45.291Z,4.07
2019-02-25T21:18:13.398Z,4.05
2019-02-25T21:20:43.041Z,3.94
2019-02-25T21:23:12.547Z,3.64
2019-02-25T21:25:41.131Z,3.86
2019-02-25T21:28:11.253Z,3.88
2019-02-25T21:30:41.344Z,3.82
2019-02-25T21:33:13.335Z,3.80
2019-02-25T21:35:40.209Z,3.65
2019-02-25T21:38:09.461Z,3.71
2019-02-25T21:40:37.882Z,3.65
2019-02-25T21:43:06.275Z,3.55
2019-02-25T21:45:34.584Z,3.56
2019-02-25T21:48:04.789Z,3.50
2019-02-25T21:50:34.040Z,3.40
2019-02-25T21:53:04.910Z,3.51
2019-02-25T21:55:34.790Z,3.18
2019-02-25T21:58:04.849Z,2.60
2019-02-25T22:00:35.133Z,2.67
2019-02-25T22:03:04.493Z,3.04
2019-02-25T22:05:32.542Z,3.12
2019-02-25T22:08:02.274Z,3.16
2019-02-25T22:10:34.054Z,3.14
2019-02-25T22:13:04.382Z,3.15
2019-02-25T22:15:31.122Z,3.04
2019-02-25T22:17:59.344Z,2.99
2019-02-25T22:20:27.522Z,2.90
2019-02-25T22:22:57.434Z,2.95
2019-02-25T22:25:25.738Z,2.88
2019-02-25T22:27:53.965Z,2.91
2019-02-25T22:30:22.238Z,2.81
2019-02-25T22:32:50.638Z,2.74
2019-02-25T22:35:19.070Z,2.69
2019-02-25T22:37:49.623Z,2.65
2019-02-25T22:40:17.565Z,2.54
2019-02-25T22:42:49.830Z,2.47
2019-02-25T22:45:18.884Z,2.29
2019-02-25T22:47:47.043Z,2.35
2019-02-25T22:50:15.442Z,2.49
2019-02-25T22:52:43.535Z,2.43
2019-02-25T22:55:12.932Z,2.38
2019-02-25T22:57:43.468Z,2.16
2019-02-25T23:00:52.722Z,1.77
2019-02-25T23:03:24.571Z,1.87
2019-02-25T23:05:53.414Z,1.92
2019-02-25T23:08:23.413Z,2.11
2019-02-25T23:10:52.296Z,2.06
2019-02-25T23:13:22.686Z,1.85
2019-02-25T23:15:51.721Z,1.66
2019-02-25T23:18:22.894Z,1.55
2019-02-25T23:20:54.454Z,1.83
2019-02-25T23:23:23.466Z,1.91
2019-02-25T23:25:51.406Z,1.77
2019-02-25T23:28:22.919Z,1.43
2019-02-25T23:30:50.846Z,1.20
2019-02-25T23:33:21.832Z,1.02
2019-02-25T23:35:49.717Z,0.85
2019-02-25T23:38:18.999Z,0.68
2019-02-25T23:40:47.238Z,0.56
2019-02-25T23:43:16.832Z,0.65
2019-02-25T23:45:46.381Z,0.52
2019-02-25T23:48:14.565Z,0.47
2019-02-25T23:50:42.839Z,0.43
2019-02-25T23:53:11.005Z,1.01
2019-02-25T23:55:39.135Z,1.23
2019-02-25T23:58:10.267Z,1.39
